createdAt,value
2023-05-01T00:01:52.917Z,99540.50
2023-05-01T00:04:22.162Z,99539.27
2023-05-01T00:06:49.409Z,99536.45
2023-05-01T00:09:16.868Z,99531.00
2023-05-01T00:11:44.168Z,99529.91
2023-05-01T00:14:11.217Z,99529.67
2023-05-01T00:16:38.357Z,99528.06
2023-05-01T00:19:05.500Z,99531.70
2023-05-01T00:21:32.595Z,99528.52
2023-05-01T00:23:59.680Z,99529.96
2023-05-01T00:26:30.589Z,99529.26
2023-05-01T00:28:58.662Z,99525.83
2023-05-01T00:31:26.177Z,99527.14
2023-05-01T00:33:53.464Z,99529.44
2023-05-01T00:36:21.204Z,99527.75
2023-05-01T00:38:48.345Z,99526.65
2023-05-01T00:41:15.572Z,99527.41
2023-05-01T00:43:42.949Z,99528.48
2023-05-01T00:46:11.627Z,99526.85
2023-05-01T00:48:38.828Z,99524.55
2023-05-01T00:51:08.188Z,99525.77
2023-05-01T00:53:35.678Z,99526.91
2023-05-01T00:56:04.426Z,99528.43
2023-05-01T00:58:32.096Z,99523.98
2023-05-01T01:00:59.270Z,99530.16
2023-05-01T01:03:26.466Z,99531.24
2023-05-01T01:06:14.984Z,99534.30
2023-05-01T01:09:41.194Z,99538.18
2023-05-01T01:12:11.061Z,99536.66
2023-05-01T01:15:14.880Z,99536.92
2023-05-01T01:17:51.201Z,99533.95
2023-05-01T01:20:39.943Z,99531.36
2023-05-01T01:23:44.929Z,99530.04
2023-05-01T01:26:24.828Z,99528.48
2023-05-01T01:29:05.168Z,99533.64
2023-05-01T01:31:58.126Z,99529.73
2023-05-01T01:34:35.626Z,99530.38
2023-05-01T01:37:12.125Z,99532.36
2023-05-01T01:40:02.966Z,99533.71
2023-05-01T01:42:53.257Z,99534.29
2023-05-01T01:45:26.750Z,99538.95
2023-05-01T01:47:56.579Z,99536.17
2023-05-01T01:50:27.070Z,99540.48
2023-05-01T01:52:57.242Z,99535.17
2023-05-01T01:55:29.771Z,99538.03
2023-05-01T01:57:59.841Z,99538.19
2023-05-01T02:00:28.952Z,99542.42
2023-05-01T02:02:59.593Z,99543.91
2023-05-01T02:05:27.760Z,99540.73
2023-05-01T02:07:56.875Z,99545.28
2023-05-01T02:10:25.895Z,99550.48
2023-05-01T02:12:58.403Z,99553.20
2023-05-01T02:15:28.117Z,99555.43
2023-05-01T02:17:56.454Z,99560.14
2023-05-01T02:20:23.985Z,99561.23
2023-05-01T02:22:53.743Z,99562.23
2023-05-01T02:25:21.467Z,99562.98
2023-05-01T02:27:56.710Z,99561.79
2023-05-01T02:30:23.985Z,99563.11
2023-05-01T02:32:51.102Z,99564.83
2023-05-01T02:35:18.457Z,99569.95
2023-05-01T02:37:46.314Z,99572.05
2023-05-01T02:40:15.823Z,99574.23
2023-05-01T02:42:48.317Z,99579.93
2023-05-01T02:45:26.354Z,99580.01
2023-05-01T02:47:59.884Z,99583.27
2023-05-01T02:50:27.671Z,99583.05
2023-05-01T02:52:56.621Z,99583.92
2023-05-01T02:55:47.438Z,99584.76
2023-05-01T02:58:19.236Z,99586.09
2023-05-01T03:00:49.993Z,99591.33
2023-05-01T03:03:19.059Z,99588.84
2023-05-01T03:05:46.237Z,99589.59
2023-05-01T03:08:13.697Z,99591.66
2023-05-01T03:10:44.583Z,99591.53
2023-05-01T03:13:12.072Z,99592.54
2023-05-01T03:15:39.662Z,99593.58
2023-05-01T03:18:07.241Z,99598.31
2023-05-01T03:20:34.372Z,99600.84
2023-05-01T03:23:02.468Z,99605.44
2023-05-01T03:25:29.908Z,99605.91
2023-05-01T03:27:57.055Z,99608.41
2023-05-01T03:30:24.485Z,99610.63
2023-05-01T03:32:52.280Z,99609.62
2023-05-01T03:35:23.828Z,99607.19
2023-05-01T03:37:51.072Z,99611.49
2023-05-01T03:40:43.777Z,99615.87
2023-05-01T03:43:33.921Z,99615.37
2023-05-01T03:46:04.287Z,99620.38
2023-05-01T03:48:31.740Z,99622.89
2023-05-01T03:50:59.273Z,99620.55
2023-05-01T03:53:26.958Z,99622.27
2023-05-01T03:55:54.520Z,99622.61
2023-05-01T03:58:22.594Z,99628.00
2023-05-01T04:00:51.053Z,99628.06
2023-05-01T04:03:18.810Z,99631.35
2023-05-01T04:05:47.188Z,99629.77
2023-05-01T04:08:14.451Z,99629.66
2023-05-01T04:10:41.634Z,99630.83
2023-05-01T04:13:09.301Z,99632.08
2023-05-01T04:15:36.478Z,99628.66
2023-05-01T04:18:03.663Z,99631.22
2023-05-01T04:20:31.566Z,99630.48
2023-05-01T04:22:58.612Z,99635.16
2023-05-01T04:25:26.236Z,99631.66
2023-05-01T04:27:58.215Z,99634.59
2023-05-01T04:30:25.314Z,99632.89
2023-05-01T04:32:52.420Z,99635.34
2023-05-01T04:35:19.673Z,99639.25
2023-05-01T04:37:47.479Z,99638.10
2023-05-01T04:40:14.788Z,99640.13
2023-05-01T04:42:42.694Z,99638.91
2023-05-01T04:45:12.363Z,99640.42
2023-05-01T04:47:39.903Z,99639.38
2023-05-01T04:50:08.132Z,99641.87
2023-05-01T04:52:36.246Z,99643.56
2023-05-01T04:55:04.201Z,99642.45
2023-05-01T04:57:33.935Z,99640.09
2023-05-01T05:00:02.194Z,99644.81
2023-05-01T05:02:32.078Z,99643.83
2023-05-01T05:04:59.431Z,99648.05
2023-05-01T05:07:26.595Z,99648.42
2023-05-01T05:10:12.645Z,99650.45
2023-05-01T05:12:40.330Z,99653.16
2023-05-01T05:15:08.098Z,99651.28
2023-05-01T05:17:35.333Z,99651.94
2023-05-01T05:20:02.769Z,99651.02
2023-05-01T05:22:30.876Z,99651.44
2023-05-01T05:25:17.210Z,99652.64
2023-05-01T05:27:44.859Z,99652.20
2023-05-01T05:30:12.694Z,99651.80
2023-05-01T05:32:40.361Z,99651.48
2023-05-01T05:35:07.949Z,99654.59
2023-05-01T05:37:35.099Z,99652.38
2023-05-01T05:40:02.191Z,99649.11
2023-05-01T05:42:31.836Z,99649.41
2023-05-01T05:45:01.601Z,99650.21
2023-05-01T05:47:28.926Z,99651.52
2023-05-01T05:49:56.607Z,99648.98
2023-05-01T05:52:24.012Z,99651.94
2023-05-01T05:54:51.357Z,99650.30
2023-05-01T05:57:18.501Z,99649.48
2023-05-01T05:59:48.720Z,99649.91
2023-05-01T06:02:16.538Z,99647.54
2023-05-01T06:04:43.884Z,99650.34
2023-05-01T06:07:11.829Z,99653.16
2023-05-01T06:09:39.289Z,99652.60
2023-05-01T06:12:07.024Z,99652.99
2023-05-01T06:14:34.409Z,99654.41
2023-05-01T06:17:01.745Z,99653.30
2023-05-01T06:19:29.092Z,99657.63
2023-05-01T06:22:04.711Z,99660.36
2023-05-01T06:24:37.008Z,99662.45
2023-05-01T06:27:07.884Z,99658.72
2023-05-01T06:29:35.272Z,99662.00
2023-05-01T06:32:02.907Z,99662.17
2023-05-01T06:34:31.077Z,99665.59
2023-05-01T06:36:59.434Z,99666.08
2023-05-01T06:39:26.547Z,99668.13
2023-05-01T06:41:58.885Z,99669.99
2023-05-01T06:44:33.082Z,99673.31
2023-05-01T06:47:02.084Z,99674.92
2023-05-01T06:49:29.604Z,99679.12
2023-05-01T06:51:57.442Z,99678.20
2023-05-01T06:54:24.641Z,99683.23
2023-05-01T06:56:51.706Z,99685.06
2023-05-01T06:59:18.826Z,99686.77
2023-05-01T07:01:46.466Z,99686.05
2023-05-01T07:04:13.679Z,99689.38
2023-05-01T07:06:40.798Z,99692.27
2023-05-01T07:09:08.000Z,99694.25
2023-05-01T07:11:36.095Z,99699.13
2023-05-01T07:14:03.920Z,99701.04
2023-05-01T07:16:31.012Z,99705.38
2023-05-01T07:18:58.474Z,99708.01
2023-05-01T07:21:26.045Z,99708.67
2023-05-01T07:23:53.232Z,99710.50
2023-05-01T07:26:20.404Z,99706.03
2023-05-01T07:28:47.529Z,99706.17
2023-05-01T07:31:14.769Z,99707.30
2023-05-01T07:33:42.684Z,99707.85
2023-05-01T07:36:09.751Z,99707.61
2023-05-01T07:38:36.965Z,99714.28
2023-05-01T07:41:04.154Z,99719.52
2023-05-01T07:43:31.185Z,99725.27
2023-05-01T07:46:00.809Z,99731.35
2023-05-01T07:48:28.946Z,99739.09
2023-05-01T07:50:57.267Z,99744.77
2023-05-01T07:53:25.132Z,99749.91
2023-05-01T07:55:52.429Z,99753.19
2023-05-01T07:58:19.682Z,99759.41
2023-05-01T08:00:46.795Z,99763.23
2023-05-01T08:03:14.159Z,99762.02
2023-05-01T08:05:42.304Z,99764.00
2023-05-01T08:08:09.899Z,99768.84
2023-05-01T08:10:37.459Z,99767.80
2023-05-01T08:13:04.947Z,99768.75
2023-05-01T08:15:32.076Z,99774.58
2023-05-01T08:17:59.213Z,99779.05
2023-05-01T08:20:26.292Z,99776.92
2023-05-01T08:22:53.482Z,99772.77
2023-05-01T08:25:20.709Z,99778.91
2023-05-01T08:27:48.056Z,99784.00
2023-05-01T08:30:15.505Z,99781.52
2023-05-01T08:32:42.694Z,99783.98
2023-05-01T08:35:10.287Z,99780.86
2023-05-01T08:37:37.511Z,99781.52
2023-05-01T08:40:08.964Z,99783.47
2023-05-01T08:42:39.293Z,99786.14
2023-05-01T08:45:10.972Z,99788.38
2023-05-01T08:47:40.282Z,99790.61
2023-05-01T08:50:14.598Z,99796.84
2023-05-01T08:52:43.454Z,99801.11
2023-05-01T08:55:14.570Z,99801.52
2023-05-01T08:57:49.161Z,99800.73
2023-05-01T09:00:21.699Z,99803.43
2023-05-01T09:02:50.031Z,99801.61
2023-05-01T09:05:20.097Z,99801.13
2023-05-01T09:07:48.732Z,99800.88
2023-05-01T09:10:19.854Z,99805.64
2023-05-01T09:12:52.971Z,99803.11
2023-05-01T09:15:22.344Z,99802.81
2023-05-01T09:17:50.941Z,99802.23
2023-05-01T09:20:19.276Z,99805.63
2023-05-01T09:22:47.279Z,99812.33
2023-05-01T09:25:14.576Z,99804.80
2023-05-01T09:27:41.892Z,99805.05
2023-05-01T09:30:09.668Z,99801.82
2023-05-01T09:32:36.856Z,99805.42
2023-05-01T09:35:10.383Z,99805.52
2023-05-01T09:37:37.909Z,99804.17
2023-05-01T09:40:05.236Z,99805.71
2023-05-01T09:42:49.532Z,99807.58
2023-05-01T09:45:17.865Z,99809.09
2023-05-01T09:47:46.931Z,99807.98
2023-05-01T09:50:30.898Z,99813.70
2023-05-01T09:52:58.700Z,99816.11
2023-05-01T09:55:26.753Z,99819.75
2023-05-01T09:57:53.996Z,99821.02
2023-05-01T10:00:22.476Z,99827.27
2023-05-01T10:02:50.845Z,99830.13
2023-05-01T10:05:20.158Z,99833.19
2023-05-01T10:08:00.089Z,99838.23
2023-05-01T10:10:28.192Z,99839.86
2023-05-01T10:12:55.940Z,99840.98
2023-05-01T10:15:26.723Z,99851.80
2023-05-01T10:17:56.025Z,99852.42
2023-05-01T10:20:26.148Z,99855.63
2023-05-01T10:22:55.072Z,99857.41
2023-05-01T10:25:23.844Z,99858.36
2023-05-01T10:27:53.233Z,99859.10
2023-05-01T10:30:22.386Z,99863.71
2023-05-01T10:32:49.930Z,99868.39
2023-05-01T10:35:25.677Z,99869.63
2023-05-01T10:38:02.170Z,99872.78
2023-05-01T10:40:48.474Z,99876.02
2023-05-01T10:43:29.236Z,99876.17
2023-05-01T10:46:08.764Z,99872.42
2023-05-01T10:48:42.690Z,99872.17
2023-05-01T10:51:18.322Z,99868.85
2023-05-01T10:53:47.093Z,99871.44
2023-05-01T10:56:32.869Z,99872.78
2023-05-01T10:59:04.844Z,99872.56
2023-05-01T11:01:33.500Z,99871.69
2023-05-01T11:04:24.056Z,99866.35
2023-05-01T11:07:08.829Z,99866.36
2023-05-01T11:09:59.122Z,99867.66
2023-05-01T11:12:45.446Z,99868.19
2023-05-01T11:15:13.966Z,99866.46
2023-05-01T11:17:41.080Z,99867.17
2023-05-01T11:20:08.886Z,99867.32
2023-05-01T11:22:37.726Z,99866.95
2023-05-01T11:25:17.623Z,99862.92
2023-05-01T11:27:52.429Z,99862.70
2023-05-01T11:30:20.273Z,99862.66
2023-05-01T11:32:49.852Z,99863.85
2023-05-01T11:35:28.538Z,99861.77
2023-05-01T11:37:56.234Z,99863.67
2023-05-01T11:40:24.501Z,99864.39
2023-05-01T11:43:00.292Z,99864.02
2023-05-01T11:45:27.566Z,99864.32
2023-05-01T11:47:54.721Z,99866.78
2023-05-01T11:50:22.333Z,99865.98
2023-05-01T11:52:54.446Z,99867.48
2023-05-01T11:55:30.926Z,99873.98
2023-05-01T11:57:58.160Z,99876.66
2023-05-01T12:00:30.650Z,99878.51
2023-05-01T12:03:00.015Z,99883.20
2023-05-01T12:05:28.955Z,99884.73
2023-05-01T12:08:18.853Z,99891.34
2023-05-01T12:10:48.678Z,99900.64
2023-05-01T12:13:17.099Z,99901.05
2023-05-01T12:15:57.217Z,99908.63
2023-05-01T12:18:24.783Z,99917.11
2023-05-01T12:20:54.522Z,99923.64
2023-05-01T12:23:33.721Z,99926.23
2023-05-01T12:26:03.220Z,99933.15
2023-05-01T12:28:33.511Z,99932.89
2023-05-01T12:31:04.970Z,99936.08
2023-05-01T12:33:33.009Z,99936.48
2023-05-01T12:36:11.721Z,99934.45
2023-05-01T12:38:39.141Z,99937.39
2023-05-01T12:41:09.061Z,99940.52
2023-05-01T12:43:38.311Z,99942.00
2023-05-01T12:46:06.907Z,99945.92
2023-05-01T12:48:39.214Z,99946.40
2023-05-01T12:51:06.824Z,99951.02
2023-05-01T12:53:34.379Z,99954.64
2023-05-01T12:56:03.582Z,99959.45
2023-05-01T12:58:38.121Z,99960.86
2023-05-01T13:01:06.641Z,99966.27
2023-05-01T13:03:34.758Z,99966.90
2023-05-01T13:06:04.421Z,99970.77
2023-05-01T13:08:38.983Z,99970.88
2023-05-01T13:11:17.728Z,99971.15
2023-05-01T13:13:46.848Z,99972.91
2023-05-01T13:16:16.614Z,99976.45
2023-05-01T13:18:47.048Z,99980.63
2023-05-01T13:21:25.041Z,99983.20
2023-05-01T13:24:00.469Z,99982.46
2023-05-01T13:26:30.663Z,99983.09
2023-05-01T13:29:00.408Z,99985.13
2023-05-01T13:31:28.465Z,99982.46
2023-05-01T13:33:57.562Z,99981.48
2023-05-01T13:36:26.664Z,99986.45
2023-05-01T13:38:57.224Z,99986.17
2023-05-01T13:41:26.725Z,99987.71
2023-05-01T13:43:56.444Z,99990.08
2023-05-01T13:46:26.744Z,99996.86
2023-05-01T13:48:53.944Z,99999.59
2023-05-01T13:51:23.356Z,100003.80
2023-05-01T13:53:54.006Z,100006.60
2023-05-01T13:56:22.099Z,100011.64
2023-05-01T13:58:50.610Z,100012.05
2023-05-01T14:01:21.015Z,100015.73
2023-05-01T14:03:49.539Z,100024.15
2023-05-01T14:06:19.600Z,100027.41
2023-05-01T14:08:48.517Z,100030.94
2023-05-01T14:11:16.326Z,100032.30
2023-05-01T14:13:45.993Z,100033.61
2023-05-01T14:16:25.202Z,100038.27
2023-05-01T14:18:57.612Z,100040.30
2023-05-01T14:21:30.138Z,100044.79
2023-05-01T14:23:57.394Z,100046.34
2023-05-01T14:26:25.066Z,100049.85
2023-05-01T14:28:52.218Z,100054.27
2023-05-01T14:31:31.188Z,100053.32
2023-05-01T14:34:03.214Z,100059.83
2023-05-01T14:36:34.116Z,100061.98
2023-05-01T14:39:02.819Z,100062.63
2023-05-01T14:41:30.174Z,100063.54
2023-05-01T14:43:57.614Z,100066.97
2023-05-01T14:46:31.243Z,100069.75
2023-05-01T14:49:00.234Z,100074.39
2023-05-01T14:51:28.766Z,100077.58
2023-05-01T14:53:56.186Z,100080.36
2023-05-01T14:56:23.853Z,100085.38
2023-05-01T14:58:51.107Z,100082.73
2023-05-01T15:01:19.245Z,100085.34
2023-05-01T15:03:46.608Z,100082.56
2023-05-01T15:06:14.059Z,100085.48
2023-05-01T15:08:41.404Z,100086.23
2023-05-01T15:11:09.094Z,100086.67
2023-05-01T15:13:36.790Z,100089.75
2023-05-01T15:16:04.115Z,100095.42
2023-05-01T15:18:31.557Z,100098.22
2023-05-01T15:20:58.617Z,100100.23
2023-05-01T15:23:27.603Z,100101.70
2023-05-01T15:25:54.923Z,100106.09
2023-05-01T15:28:22.195Z,100106.38
2023-05-01T15:30:49.406Z,100108.05
2023-05-01T15:33:19.261Z,100107.77
2023-05-01T15:35:48.813Z,100107.17
2023-05-01T15:38:15.957Z,100115.33
2023-05-01T15:40:43.453Z,100118.23
2023-05-01T15:43:10.527Z,100125.04
2023-05-01T15:45:43.232Z,100123.25
2023-05-01T15:48:11.621Z,100130.41
2023-05-01T15:50:38.865Z,100133.17
2023-05-01T15:53:05.982Z,100134.64
2023-05-01T15:55:34.374Z,100135.08
2023-05-01T15:58:02.957Z,100139.17
2023-05-01T16:00:30.172Z,100145.36
2023-05-01T16:02:57.456Z,100148.89
2023-05-01T16:05:25.165Z,100148.39
2023-05-01T16:07:55.823Z,100151.91
2023-05-01T16:10:25.202Z,100154.92
2023-05-01T16:12:55.567Z,100159.74
2023-05-01T16:15:23.153Z,100164.45
2023-05-01T16:17:51.692Z,100169.75
2023-05-01T16:20:20.135Z,100171.05
2023-05-01T16:22:47.249Z,100174.05
2023-05-01T16:25:14.448Z,100182.13
2023-05-01T16:27:44.670Z,100183.86
2023-05-01T16:30:14.673Z,100184.34
2023-05-01T16:32:42.564Z,100189.70
2023-05-01T16:35:18.061Z,100189.74
2023-05-01T16:37:45.182Z,100194.95
2023-05-01T16:40:17.260Z,100199.77
2023-05-01T16:42:52.125Z,100201.87
2023-05-01T16:45:20.222Z,100204.45
2023-05-01T16:47:47.655Z,100210.75
2023-05-01T16:50:15.378Z,100210.87
2023-05-01T16:52:42.510Z,100212.60
2023-05-01T16:55:10.281Z,100215.48
2023-05-01T16:57:37.533Z,100220.55
2023-05-01T17:00:05.622Z,100223.99
2023-05-01T17:02:33.945Z,100227.09
2023-05-01T17:05:02.671Z,100231.49
2023-05-01T17:07:32.374Z,100234.58
2023-05-01T17:09:59.849Z,100240.08
2023-05-01T17:12:28.020Z,100244.13
2023-05-01T17:14:56.741Z,100254.25
2023-05-01T17:17:23.975Z,100258.80
2023-05-01T17:19:51.559Z,100264.41
2023-05-01T17:22:18.677Z,100267.52
2023-05-01T17:24:45.874Z,100267.13
2023-05-01T17:27:13.833Z,100274.73
2023-05-01T17:29:41.708Z,100278.88
2023-05-01T17:32:09.006Z,100283.70
2023-05-01T17:34:36.224Z,100288.09
2023-05-01T17:37:03.356Z,100295.86
2023-05-01T17:39:30.561Z,100293.73
2023-05-01T17:41:57.648Z,100300.86
2023-05-01T17:44:24.960Z,100304.88
2023-05-01T17:46:52.079Z,100307.58
2023-05-01T17:49:19.289Z,100313.29
2023-05-01T17:51:46.478Z,100316.64
2023-05-01T17:54:15.334Z,100321.59
2023-05-01T17:56:42.597Z,100327.23
2023-05-01T17:59:09.777Z,100333.77
2023-05-01T18:01:37.090Z,100335.27
2023-05-01T18:04:04.348Z,100340.93
2023-05-01T18:06:32.084Z,100337.14
2023-05-01T18:08:59.537Z,100345.04
2023-05-01T18:11:27.790Z,100342.63
2023-05-01T18:13:54.976Z,100341.73
2023-05-01T18:16:23.611Z,100340.83
2023-05-01T18:18:50.976Z,100343.38
2023-05-01T18:21:18.313Z,100341.26
2023-05-01T18:23:48.649Z,100346.86
2023-05-01T18:26:16.799Z,100348.10
2023-05-01T18:28:43.893Z,100347.77
2023-05-01T18:31:11.159Z,100346.39
2023-05-01T18:33:39.354Z,100350.70
2023-05-01T18:36:07.062Z,100354.71
2023-05-01T18:38:34.143Z,100354.23
2023-05-01T18:41:01.179Z,100357.75
2023-05-01T18:43:28.267Z,100356.24
2023-05-01T18:45:55.415Z,100352.83
2023-05-01T18:48:22.533Z,100351.89
2023-05-01T18:51:00.899Z,100354.20
2023-05-01T18:53:35.072Z,100356.55
2023-05-01T18:56:02.245Z,100347.02
2023-05-01T18:58:30.381Z,100349.75
2023-05-01T19:00:57.575Z,100354.33
2023-05-01T19:03:24.626Z,100357.79
2023-05-01T19:05:52.090Z,100355.87
2023-05-01T19:08:19.154Z,100360.82
2023-05-01T19:10:46.219Z,100360.19
2023-05-01T19:13:13.238Z,100366.80
2023-05-01T19:15:40.560Z,100367.48
2023-05-01T19:18:08.370Z,100368.23
2023-05-01T19:20:35.439Z,100375.38
2023-05-01T19:23:02.555Z,100375.02
2023-05-01T19:25:30.370Z,100376.58
2023-05-01T19:27:57.529Z,100380.35
2023-05-01T19:30:24.632Z,100385.45
2023-05-01T19:32:52.252Z,100385.02
2023-05-01T19:35:19.395Z,100385.61
2023-05-01T19:37:48.166Z,100387.31
2023-05-01T19:40:16.676Z,100392.99
2023-05-01T19:42:44.547Z,100396.07
2023-05-01T19:45:11.756Z,100399.72
2023-05-01T19:47:38.998Z,100400.77
2023-05-01T19:50:06.892Z,100403.69
2023-05-01T19:52:36.627Z,100400.61
2023-05-01T19:55:05.200Z,100400.63
2023-05-01T19:57:32.460Z,100405.42
2023-05-01T19:59:59.789Z,100409.14
2023-05-01T20:02:28.054Z,100412.28
2023-05-01T20:04:55.398Z,100417.93
2023-05-01T20:07:22.627Z,100419.94
2023-05-01T20:09:50.217Z,100420.54
2023-05-01T20:12:17.317Z,100421.75
2023-05-01T20:14:44.428Z,100420.48
2023-05-01T20:17:11.636Z,100424.27
2023-05-01T20:19:39.818Z,100426.30
2023-05-01T20:22:07.380Z,100427.55
2023-05-01T20:24:34.516Z,100426.27
2023-05-01T20:27:03.389Z,100430.52
2023-05-01T20:29:30.471Z,100434.64
2023-05-01T20:31:59.196Z,100437.58
2023-05-01T20:34:26.450Z,100435.93
2023-05-01T20:36:53.522Z,100436.05
2023-05-01T20:39:20.687Z,100437.73
2023-05-01T20:41:48.397Z,100436.55
2023-05-01T20:44:15.775Z,100439.36
2023-05-01T20:46:44.018Z,100439.95
2023-05-01T20:49:14.412Z,100442.52
2023-05-01T20:51:43.415Z,100443.08
2023-05-01T20:54:11.249Z,100439.30
2023-05-01T20:56:38.672Z,100444.75
2023-05-01T20:59:07.063Z,100447.04
2023-05-01T21:01:34.262Z,100447.62
2023-05-01T21:04:01.601Z,100450.25
2023-05-01T21:06:32.021Z,100450.70
2023-05-01T21:09:00.863Z,100454.04
2023-05-01T21:11:28.001Z,100452.83
2023-05-01T21:13:57.369Z,100453.34
2023-05-01T21:16:24.482Z,100455.99
2023-05-01T21:18:51.615Z,100456.56
2023-05-01T21:21:18.834Z,100456.39
2023-05-01T21:23:49.190Z,100462.27
2023-05-01T21:26:16.516Z,100456.27
2023-05-01T21:28:43.810Z,100459.40
2023-05-01T21:31:14.890Z,100461.41
2023-05-01T21:33:45.988Z,100463.52
2023-05-01T21:36:17.245Z,100469.64
2023-05-01T21:38:46.235Z,100470.10
2023-05-01T21:41:15.570Z,100472.91
2023-05-01T21:43:43.042Z,100476.27
2023-05-01T21:46:15.969Z,100476.80
2023-05-01T21:48:43.661Z,100485.25
2023-05-01T21:51:11.001Z,100482.85
2023-05-01T21:53:41.314Z,100486.77
2023-05-01T21:56:10.143Z,100491.75
2023-05-01T21:58:38.773Z,100493.02
2023-05-01T22:01:06.780Z,100495.63
2023-05-01T22:03:34.346Z,100496.77
2023-05-01T22:06:02.426Z,100501.17
2023-05-01T22:08:29.508Z,100501.16
2023-05-01T22:10:56.671Z,100508.38
2023-05-01T22:13:23.859Z,100507.98
2023-05-01T22:15:50.932Z,100508.21
2023-05-01T22:18:19.770Z,100510.47
2023-05-01T22:20:47.006Z,100511.00
2023-05-01T22:23:14.593Z,100517.80
2023-05-01T22:25:41.792Z,100520.33
2023-05-01T22:28:09.271Z,100519.29
2023-05-01T22:30:37.564Z,100520.95
2023-05-01T22:33:04.675Z,100523.79
2023-05-01T22:35:32.013Z,100524.95
2023-05-01T22:37:59.129Z,100524.95
2023-05-01T22:40:26.704Z,100527.68
2023-05-01T22:42:53.730Z,100529.63
2023-05-01T22:45:21.025Z,100532.46
2023-05-01T22:47:48.108Z,100530.24
2023-05-01T22:50:16.152Z,100535.48
2023-05-01T22:52:45.890Z,100536.13
2023-05-01T22:55:13.934Z,100539.41
2023-05-01T22:57:41.138Z,100541.46
2023-05-01T23:00:09.916Z,100542.52
2023-05-01T23:02:37.188Z,100543.83
2023-05-01T23:05:04.970Z,100544.84
2023-05-01T23:07:32.397Z,100545.88
2023-05-01T23:10:01.030Z,100546.50
2023-05-01T23:12:29.039Z,100542.46
2023-05-01T23:14:56.176Z,100544.81
2023-05-01T23:17:23.364Z,100543.48
2023-05-01T23:19:50.749Z,100542.23
2023-05-01T23:22:19.540Z,100541.88
2023-05-01T23:24:48.711Z,100546.27
2023-05-01T23:27:17.551Z,100547.06
2023-05-01T23:29:54.973Z,100551.24
2023-05-01T23:32:30.355Z,100549.55
2023-05-01T23:35:24.503Z,100550.91
2023-05-01T23:37:53.128Z,100552.52
2023-05-01T23:40:20.426Z,100555.83
2023-05-01T23:42:48.271Z,100554.39
2023-05-01T23:45:17.014Z,100555.45
2023-05-01T23:47:44.193Z,100556.67
2023-05-01T23:50:11.654Z,100554.36
2023-05-01T23:52:38.842Z,100555.39
2023-05-01T23:55:06.081Z,100554.90
2023-05-01T23:57:33.159Z,100551.30
